Midhurst, Canada
Current Conditions -  °F | °C
As of 8:00 AM on Saturday 25 Oct 2014 (Local Time) from CYBN Reporting Station
Scattered Clouds Scattered Clouds  
Wind Chill: 52°   Ceiling: Unl
Heat Index: 52°   Visibility: 7mi
Dew Point: 50°   Wind: 6mph
Humidity: 94%   Direction: 210°SSW
Pressure: 29.75"   Gusts: NA
Location:  44.44°N, 79.73°W
Report Text: CYBN 251200Z AUTO 21005KT 7SM SCT080 11/10 A2975 RMK SLP079
Loading
Personal Weather Stations






























Interactive Weather Map
Tropical Storm Tracking
New forecast layout! Learn more

10-Day Weather Forecast

Advertisements
Track Severe Weather on mobile